Terminal Aerodrome Forecast
Issued by NWS

Home | Current Version | Previous Version | Text Only | Print | Product List | Glossary On
Versions: 1 2 3 4 5 6 7 8 9 10 11 12 13 14 15 16 17 18 19 20 21 22 23 24 25 26 27 28 29 30 31 32 33 34 35 36 37 38 39 40 41 42 43 44 45 46 47
000
FTAK31 PAFA 310148 AAA
TAFASC
TAF AMD
PASC 310148Z 3102/3124 08013KT P6SM FEW006
     FM310900 08016KT 4SM BR BKN004
     FM311800 08016KT P6SM FEW006 BKN100=

USA.gov is the U.S. government's official web portal to all federal, state and local government web resources and services.